Time;durP1;ratioP1;P1;durP2;ratioP2;P2;SDS_P1;SDS_P2;PMS_P1;PMS_P2;Temp;Humidity;BMP_temperature;BMP_pressure;BME280_temperature;BME280_humidity;BME280_pressure;Samples;Min_cycle;Max_cycle;Signal;HPM_P1;HPM_P2
2021/03/09 00:01:34;;;;;;;4.40;3.95;;;22.50;27.70;;;;;;5030465;28;20049;-48
2021/03/09 00:04:00;;;;;;;4.80;3.97;;;22.50;27.80;;;;;;5018706;28;20042;-49
2021/03/09 00:06:25;;;;;;;5.25;3.97;;;22.60;27.80;;;;;;5024569;28;20028;-48
2021/03/09 00:08:51;;;;;;;5.32;3.45;;;22.50;27.80;;;;;;5024379;28;20077;-48
2021/03/09 00:11:17;;;;;;;5.80;4.30;;;22.50;27.80;;;;;;5027372;28;20425;-46
2021/03/09 00:13:43;;;;;;;4.20;3.80;;;22.50;27.80;;;;;;5027038;28;20036;-46
2021/03/09 00:16:08;;;;;;;5.22;4.20;;;22.50;27.80;;;;;;5023769;28;20026;-48
2021/03/09 00:18:34;;;;;;;4.50;3.72;;;22.50;27.90;;;;;;5017334;28;20028;-44
2021/03/09 00:21:00;;;;;;;3.92;3.25;;;22.50;27.90;;;;;;5015592;28;20038;-48
2021/03/09 00:23:26;;;;;;;4.03;3.63;;;22.50;27.90;;;;;;5027916;28;20115;-45
2021/03/09 00:25:52;;;;;;;3.90;3.38;;;22.50;27.90;;;;;;5023897;28;20025;-47
2021/03/09 00:28:21;;;;;;;4.18;3.50;;;22.50;27.90;;;;;;5024861;28;20032;-49
2021/03/09 00:30:47;;;;;;;3.47;3.05;;;22.50;28.40;;;;;;5018119;28;20038;-44
2021/03/09 00:33:12;;;;;;;5.18;3.40;;;22.40;27.90;;;;;;5024750;28;20313;-46
2021/03/09 00:35:38;;;;;;;3.92;3.33;;;22.40;27.90;;;;;;5022441;28;20097;-48
2021/03/09 00:38:04;;;;;;;3.53;3.13;;;22.40;27.90;;;;;;5017568;28;20116;-45
2021/03/09 00:40:30;;;;;;;4.07;3.15;;;22.40;27.90;;;;;;5026972;28;20057;-47
2021/03/09 00:42:56;;;;;;;3.47;3.00;;;22.40;27.90;;;;;;5016330;28;20103;-46
2021/03/09 00:45:21;;;;;;;3.38;2.95;;;22.40;27.90;;;;;;5023675;28;20053;-49
2021/03/09 00:47:47;;;;;;;3.67;2.88;;;22.40;27.90;;;;;;5021800;28;20026;-46
2021/03/09 00:50:13;;;;;;;3.65;2.90;;;22.40;27.90;;;;;;5023233;28;20091;-48
2021/03/09 00:52:39;;;;;;;3.63;3.08;;;22.40;27.90;;;;;;5024195;28;20487;-46
2021/03/09 00:55:06;;;;;;;3.03;2.72;;;22.40;28.00;;;;;;5023345;28;20033;-49
2021/03/09 00:57:32;;;;;;;3.65;2.92;;;22.40;28.00;;;;;;5026432;28;20032;-48
2021/03/09 00:59:57;;;;;;;3.67;2.75;;;22.40;28.00;;;;;;5034125;28;20029;-47
2021/03/09 01:02:23;;;;;;;4.13;3.05;;;22.30;28.00;;;;;;5034058;28;20440;-49
2021/03/09 01:04:49;;;;;;;3.22;2.83;;;22.30;28.00;;;;;;5027075;28;20065;-46
2021/03/09 01:07:15;;;;;;;3.63;2.65;;;22.40;28.00;;;;;;5037586;28;20447;-46
2021/03/09 01:09:40;;;;;;;3.40;2.55;;;22.30;28.00;;;;;;5030629;28;20048;-44
2021/03/09 01:12:07;;;;;;;3.60;2.83;;;22.30;28.00;;;;;;5025022;28;20124;-47
2021/03/09 01:14:32;;;;;;;3.42;2.85;;;22.30;28.00;;;;;;5030866;28;20429;-46
2021/03/09 01:16:58;;;;;;;2.85;2.53;;;22.30;28.00;;;;;;5028301;28;20064;-50
2021/03/09 01:19:24;;;;;;;3.08;2.67;;;22.30;28.00;;;;;;5033840;28;20041;-46
2021/03/09 01:21:50;;;;;;;4.10;3.08;;;22.30;28.10;;;;;;5025690;28;20038;-46
2021/03/09 01:24:16;;;;;;;3.35;2.95;;;22.30;28.10;;;;;;5031189;28;20022;-47
2021/03/09 01:26:41;;;;;;;4.57;2.90;;;22.30;28.10;;;;;;5020440;28;20030;-46
2021/03/09 01:29:07;;;;;;;3.10;2.58;;;22.30;28.10;;;;;;5033431;28;20029;-47
2021/03/09 01:31:33;;;;;;;3.72;3.08;;;22.20;28.10;;;;;;5032562;28;20072;-52
2021/03/09 01:33:59;;;;;;;3.65;3.10;;;22.20;28.10;;;;;;5021003;28;20026;-49
2021/03/09 01:36:24;;;;;;;3.30;3.00;;;22.20;28.10;;;;;;5031884;28;20034;-44
2021/03/09 01:38:50;;;;;;;4.07;3.22;;;22.20;28.10;;;;;;5035835;28;20104;-49
2021/03/09 01:41:16;;;;;;;3.15;2.75;;;22.20;28.10;;;;;;5027597;28;20356;-49
2021/03/09 01:43:42;;;;;;;3.35;2.83;;;22.20;28.10;;;;;;5034040;28;20029;-48
2021/03/09 01:46:07;;;;;;;4.30;3.25;;;22.20;28.10;;;;;;5031422;28;20136;-44
2021/03/09 01:48:43;;;;;;;3.50;3.17;;;22.20;28.10;;;;;;5020300;28;20030;-49
2021/03/09 01:51:10;;;;;;;3.30;3.00;;;22.20;28.20;;;;;;5026781;28;21527;-47
2021/03/09 01:53:36;;;;;;;3.60;2.80;;;22.20;28.20;;;;;;5033301;28;20121;-49
2021/03/09 01:56:02;;;;;;;3.92;3.03;;;22.20;28.20;;;;;;5027155;28;20105;-49
2021/03/09 01:58:30;;;;;;;4.18;3.10;;;22.20;28.70;;;;;;5031239;28;20029;-46
2021/03/09 02:00:56;;;;;;;3.22;2.80;;;22.10;28.20;;;;;;5026227;28;20379;-49
2021/03/09 02:03:22;;;;;;;3.25;2.65;;;22.10;28.20;;;;;;5022351;28;20054;-46
2021/03/09 02:05:48;;;;;;;4.00;3.10;;;22.20;28.20;;;;;;5023085;28;20836;-45
2021/03/09 02:08:14;;;;;;;4.82;3.42;;;22.10;28.20;;;;;;5033322;28;20142;-44
2021/03/09 02:10:40;;;;;;;3.70;3.08;;;22.10;28.20;;;;;;5023064;28;20061;-47
2021/03/09 02:13:30;;;;;;;5.05;3.30;;;22.10;28.20;;;;;;5027786;28;20033;-46
2021/03/09 02:16:20;;;;;;;3.72;3.15;;;22.10;28.20;;;;;;5022927;28;20429;-46
2021/03/09 02:19:39;;;;;;;3.20;2.83;;;22.10;28.20;;;;;;5026359;28;20392;-47
2021/03/09 02:22:14;;;;;;;3.08;2.78;;;22.10;28.30;;;;;;5029739;28;20511;-48
2021/03/09 02:25:04;;;;;;;3.03;2.60;;;22.10;28.30;;;;;;5021158;28;20330;-46
2021/03/09 02:28:06;;;;;;;4.35;3.10;;;22.10;28.30;;;;;;5017913;28;20029;-48
2021/03/09 02:30:40;;;;;;;3.00;2.47;;;22.10;28.30;;;;;;5024912;28;20037;-49
2021/03/09 02:33:12;;;;;;;4.45;3.00;;;22.00;28.30;;;;;;5026836;28;20061;-45
2021/03/09 02:35:43;;;;;;;3.80;3.20;;;22.10;28.30;;;;;;5028508;28;20026;-50
2021/03/09 02:38:12;;;;;;;3.35;2.80;;;22.10;28.30;;;;;;5027460;28;20034;-49
2021/03/09 02:40:39;;;;;;;3.42;3.03;;;22.00;28.80;;;;;;5021594;28;20025;-44
2021/03/09 02:43:15;;;;;;;3.58;3.10;;;22.00;28.30;;;;;;5031942;28;20029;-48
2021/03/09 02:45:43;;;;;;;3.15;2.75;;;22.00;28.30;;;;;;5018167;28;20085;-49
2021/03/09 02:48:11;;;;;;;3.55;3.13;;;22.00;28.30;;;;;;5024456;28;20092;-47
2021/03/09 02:50:39;;;;;;;4.47;3.53;;;22.00;28.30;;;;;;5026601;28;20063;-46
2021/03/09 02:53:12;;;;;;;3.45;3.08;;;22.00;28.30;;;;;;5023294;28;20033;-48
2021/03/09 02:55:41;;;;;;;3.78;3.17;;;22.00;28.40;;;;;;5021756;28;20033;-48
2021/03/09 02:58:09;;;;;;;3.75;3.30;;;22.00;28.40;;;;;;5028657;28;20053;-47
2021/03/09 03:00:37;;;;;;;3.75;3.10;;;22.00;28.40;;;;;;5020583;28;20053;-44
2021/03/09 03:03:07;;;;;;;3.80;3.40;;;22.00;28.40;;;;;;5018076;28;20046;-46
2021/03/09 03:05:34;;;;;;;4.63;3.42;;;22.00;28.40;;;;;;5025370;28;20163;-44
2021/03/09 03:08:05;;;;;;;4.20;3.55;;;22.00;28.40;;;;;;5020614;28;20029;-46
2021/03/09 03:10:32;;;;;;;4.22;3.60;;;22.00;28.40;;;;;;5026997;28;20145;-46
2021/03/09 03:12:59;;;;;;;3.88;3.38;;;22.00;28.40;;;;;;5023943;28;20034;-48
2021/03/09 03:15:25;;;;;;;4.15;3.30;;;22.00;28.40;;;;;;5025820;28;20449;-50
2021/03/09 03:17:52;;;;;;;3.72;3.08;;;22.00;28.40;;;;;;5027805;28;20033;-49
2021/03/09 03:20:20;;;;;;;4.47;3.17;;;21.90;28.40;;;;;;5017397;28;20560;-43
2021/03/09 03:22:48;;;;;;;4.30;3.50;;;22.00;28.50;;;;;;5020992;28;20280;-46
2021/03/09 03:25:16;;;;;;;3.42;3.13;;;22.00;29.00;;;;;;5018457;28;20505;-44
2021/03/09 03:27:45;;;;;;;5.65;3.38;;;22.00;28.50;;;;;;5032421;28;20433;-45
2021/03/09 03:30:13;;;;;;;4.63;3.35;;;22.00;28.50;;;;;;5026499;28;20057;-45
2021/03/09 03:32:39;;;;;;;4.05;3.22;;;21.90;28.50;;;;;;5026957;28;20044;-49
2021/03/09 03:35:08;;;;;;;3.50;3.10;;;21.90;28.50;;;;;;5029577;28;20426;-46
2021/03/09 03:37:39;;;;;;;4.00;3.60;;;21.90;28.50;;;;;;5025733;28;20061;-47
2021/03/09 03:40:08;;;;;;;4.10;3.47;;;21.90;28.60;;;;;;5020854;28;20446;-46
2021/03/09 03:42:34;;;;;;;3.97;3.50;;;21.90;28.50;;;;;;5020356;28;20041;-51
2021/03/09 03:45:00;;;;;;;4.15;3.10;;;21.90;28.60;;;;;;5018514;28;20372;-50
2021/03/09 03:47:26;;;;;;;4.13;3.63;;;21.90;28.60;;;;;;5027126;28;20036;-49
2021/03/09 03:49:53;;;;;;;3.60;3.30;;;21.90;28.60;;;;;;5018785;28;20472;-46
2021/03/09 03:52:35;;;;;;;3.75;3.40;;;21.90;28.60;;;;;;5020803;28;20030;-49
2021/03/09 03:55:42;;;;;;;3.78;3.47;;;21.90;28.60;;;;;;5018824;28;20488;-45
2021/03/09 03:58:25;;;;;;;4.47;3.80;;;21.90;28.60;;;;;;4993318;28;20049;-46
2021/03/09 04:00:52;;;;;;;3.63;3.33;;;21.90;28.60;;;;;;5019635;28;20029;-46
2021/03/09 04:03:18;;;;;;;4.43;3.78;;;21.90;28.70;;;;;;5026882;28;20052;-45
2021/03/09 04:05:48;;;;;;;4.05;3.65;;;21.90;28.70;;;;;;5020869;28;20486;-48
2021/03/09 04:08:16;;;;;;;4.18;3.50;;;21.80;28.60;;;;;;5022397;28;20029;-46
2021/03/09 04:10:43;;;;;;;5.05;4.18;;;21.90;28.70;;;;;;5021989;28;20060;-44
2021/03/09 04:13:09;;;;;;;4.15;3.70;;;21.80;28.70;;;;;;5024576;28;20044;-43
2021/03/09 04:15:36;;;;;;;4.55;3.92;;;21.80;28.70;;;;;;5025183;28;20115;-44
2021/03/09 04:18:07;;;;;;;4.30;3.90;;;21.80;28.70;;;;;;5015775;28;20032;-45
2021/03/09 04:20:35;;;;;;;4.90;4.00;;;21.80;28.70;;;;;;5017928;28;20041;-42
2021/03/09 04:23:04;;;;;;;4.38;3.88;;;21.80;28.70;;;;;;5022975;28;20022;-44
2021/03/09 04:25:33;;;;;;;4.72;4.05;;;21.80;28.70;;;;;;5029133;28;20032;-44
2021/03/09 04:28:01;;;;;;;4.32;3.63;;;21.80;28.70;;;;;;5024138;28;20041;-46
2021/03/09 04:30:28;;;;;;;4.75;4.13;;;21.80;28.80;;;;;;5021601;28;20081;-45
2021/03/09 04:32:54;;;;;;;4.85;3.90;;;21.80;28.80;;;;;;5015937;28;20034;-46
2021/03/09 04:35:20;;;;;;;4.75;4.28;;;21.80;28.80;;;;;;5023823;28;20030;-46
2021/03/09 04:37:46;;;;;;;4.75;4.13;;;21.80;28.80;;;;;;5018474;28;20110;-51
2021/03/09 04:40:13;;;;;;;5.03;4.43;;;21.80;28.80;;;;;;5028627;28;20030;-48
2021/03/09 04:42:39;;;;;;;4.35;3.90;;;21.80;28.80;;;;;;5019225;28;20034;-44
2021/03/09 04:45:06;;;;;;;4.35;3.95;;;21.80;28.80;;;;;;5029873;28;20095;-51
2021/03/09 04:47:32;;;;;;;5.43;3.75;;;21.80;28.80;;;;;;5022323;28;20033;-45
2021/03/09 04:49:58;;;;;;;3.85;3.45;;;21.80;28.80;;;;;;5024971;28;20033;-46
2021/03/09 04:52:25;;;;;;;3.78;3.40;;;21.80;28.90;;;;;;5029180;28;20018;-51
2021/03/09 04:54:52;;;;;;;4.30;3.90;;;21.80;28.90;;;;;;5019077;28;20038;-46
2021/03/09 04:57:18;;;;;;;4.13;3.63;;;21.70;28.90;;;;;;5028149;28;20029;-48
2021/03/09 04:59:44;;;;;;;5.15;3.90;;;21.80;28.90;;;;;;5024035;28;20091;-46
2021/03/09 05:02:10;;;;;;;4.75;3.95;;;21.80;28.90;;;;;;5023040;28;20464;-45
2021/03/09 05:04:36;;;;;;;4.57;3.88;;;21.80;28.90;;;;;;5022338;28;20410;-47
2021/03/09 05:07:02;;;;;;;4.90;4.20;;;21.70;28.90;;;;;;5016783;28;20039;-48
2021/03/09 05:09:32;;;;;;;4.63;3.92;;;21.70;28.90;;;;;;5018025;28;20050;-49
2021/03/09 05:11:58;;;;;;;4.70;3.70;;;21.70;28.90;;;;;;5024927;28;20033;-48
2021/03/09 05:14:24;;;;;;;4.38;3.97;;;21.70;28.90;;;;;;5025661;28;20084;-47
2021/03/09 05:16:50;;;;;;;4.22;3.78;;;21.70;28.90;;;;;;5027183;28;20040;-47
2021/03/09 05:19:15;;;;;;;4.75;4.15;;;21.70;29.00;;;;;;5023877;28;20117;-47
2021/03/09 05:21:41;;;;;;;5.07;4.43;;;21.70;29.00;;;;;;5015934;28;20403;-48
2021/03/09 05:24:08;;;;;;;4.40;3.95;;;21.70;29.00;;;;;;5018812;28;20037;-47
2021/03/09 05:26:33;;;;;;;6.57;4.40;;;21.70;29.00;;;;;;5030960;28;20049;-45
2021/03/09 05:28:59;;;;;;;4.90;4.40;;;21.70;29.00;;;;;;5018837;28;20068;-48
2021/03/09 05:31:25;;;;;;;5.28;4.55;;;21.70;29.00;;;;;;5016425;28;20129;-50
2021/03/09 05:33:51;;;;;;;4.55;4.13;;;21.70;29.00;;;;;;5028735;28;20095;-49
2021/03/09 05:36:16;;;;;;;4.70;4.10;;;21.70;29.00;;;;;;5023041;28;20044;-43
2021/03/09 05:38:42;;;;;;;5.15;4.40;;;21.70;29.10;;;;;;5021574;28;20472;-47
2021/03/09 05:41:08;;;;;;;5.22;4.72;;;21.70;29.10;;;;;;5028369;28;20026;-48
2021/03/09 05:43:35;;;;;;;5.50;4.88;;;21.70;29.10;;;;;;5030169;28;20025;-46
2021/03/09 05:46:01;;;;;;;5.43;4.63;;;21.60;29.10;;;;;;5034964;28;20057;-48
2021/03/09 05:48:27;;;;;;;5.22;4.72;;;21.60;29.10;;;;;;5026013;28;20054;-46
2021/03/09 05:50:54;;;;;;;5.45;4.30;;;21.60;29.10;;;;;;5032643;28;20044;-46
2021/03/09 05:53:20;;;;;;;5.65;4.70;;;21.60;29.10;;;;;;5026198;28;20030;-44
2021/03/09 05:55:46;;;;;;;5.70;5.10;;;21.60;29.10;;;;;;5024040;28;20079;-47
2021/03/09 05:58:11;;;;;;;5.57;4.90;;;21.60;29.20;;;;;;5024106;28;20396;-46
2021/03/09 06:00:37;;;;;;;5.13;4.57;;;21.60;29.10;;;;;;5017477;28;20034;-46
2021/03/09 06:03:03;;;;;;;5.38;4.78;;;21.60;29.20;;;;;;5027819;28;20064;-47
2021/03/09 06:05:29;;;;;;;5.22;4.70;;;21.60;29.20;;;;;;5031150;28;20022;-48
2021/03/09 06:07:55;;;;;;;5.65;4.80;;;21.60;29.20;;;;;;5019284;28;20041;-45
2021/03/09 06:10:23;;;;;;;5.00;4.50;;;21.60;29.20;;;;;;5019356;28;20042;-46
2021/03/09 06:12:50;;;;;;;5.30;4.80;;;21.60;29.20;;;;;;5021024;28;20045;-44
2021/03/09 06:15:16;;;;;;;5.30;4.80;;;21.60;29.80;;;;;;5030448;28;20029;-47
2021/03/09 06:17:43;;;;;;;5.00;4.50;;;21.60;29.30;;;;;;5032337;28;20021;-44
2021/03/09 06:20:18;;;;;;;5.90;5.15;;;21.60;29.30;;;;;;5031688;28;20437;-46
2021/03/09 06:22:51;;;;;;;5.47;4.90;;;21.60;29.30;;;;;;5025567;28;20034;-49
2021/03/09 06:25:23;;;;;;;5.90;5.10;;;21.60;29.30;;;;;;5021119;28;20048;-46
2021/03/09 06:27:50;;;;;;;5.07;4.57;;;21.60;29.30;;;;;;5026908;28;20026;-46
2021/03/09 06:30:31;;;;;;;6.40;5.47;;;21.60;29.30;;;;;;5025961;28;20050;-45
2021/03/09 06:32:58;;;;;;;6.30;5.60;;;21.60;29.30;;;;;;5028308;28;20416;-46
2021/03/09 06:35:41;;;;;;;5.60;4.97;;;21.60;29.40;;;;;;5024413;28;20041;-45
2021/03/09 06:38:24;;;;;;;6.53;5.53;;;21.50;29.40;;;;;;5019418;28;20034;-46
2021/03/09 06:41:11;;;;;;;6.50;5.40;;;21.60;29.40;;;;;;5028494;28;20458;-46
2021/03/09 06:43:45;;;;;;;6.63;5.93;;;21.50;29.40;;;;;;5023213;28;20494;-45
2021/03/09 06:46:19;;;;;;;7.88;6.18;;;21.50;29.40;;;;;;5031055;28;20030;-43
2021/03/09 06:48:50;;;;;;;8.50;5.85;;;21.50;29.40;;;;;;5015852;28;20022;-45
2021/03/09 06:51:32;;;;;;;7.20;6.45;;;21.50;29.40;;;;;;5030346;28;20072;-42
2021/03/09 06:54:08;;;;;;;7.88;6.10;;;21.60;29.50;;;;;;5021555;28;20380;-46
2021/03/09 06:56:37;;;;;;;7.10;6.40;;;21.50;29.40;;;;;;5027907;28;20504;-48
2021/03/09 06:59:22;;;;;;;8.35;6.95;;;21.50;29.50;;;;;;5025892;28;20026;-48
2021/03/09 07:02:07;;;;;;;7.68;5.93;;;21.50;29.50;;;;;;5016252;28;20050;-45
2021/03/09 07:04:35;;;;;;;7.55;6.28;;;21.50;29.50;;;;;;5020839;28;20053;-45
2021/03/09 07:07:01;;;;;;;8.07;6.40;;;21.50;29.50;;;;;;5020950;28;20029;-46
2021/03/09 07:09:27;;;;;;;9.80;6.95;;;21.50;29.50;;;;;;5021501;28;20056;-45
2021/03/09 07:11:54;;;;;;;7.95;6.63;;;21.50;29.60;;;;;;5022503;28;20026;-48
2021/03/09 07:14:22;;;;;;;7.90;6.78;;;21.50;29.70;;;;;;5019628;28;20030;-52
2021/03/09 07:16:51;;;;;;;8.02;6.88;;;21.50;29.70;;;;;;5022208;28;20350;-47
2021/03/09 07:19:27;;;;;;;8.38;7.00;;;21.50;29.70;;;;;;5026965;28;20218;-48
2021/03/09 07:21:53;;;;;;;8.63;7.03;;;21.50;29.70;;;;;;5021096;28;20029;-47
2021/03/09 07:24:21;;;;;;;7.60;6.72;;;21.50;29.70;;;;;;5031362;28;20032;-45
2021/03/09 07:26:51;;;;;;;8.25;6.40;;;21.50;29.80;;;;;;5027977;28;20029;-48
2021/03/09 07:29:21;;;;;;;8.90;6.72;;;21.50;29.80;;;;;;5022716;28;20057;-48
2021/03/09 07:31:53;;;;;;;8.05;6.78;;;21.50;29.80;;;;;;5030481;28;20122;-53
2021/03/09 07:34:19;;;;;;;7.78;6.43;;;21.50;29.80;;;;;;5018029;28;20029;-47
2021/03/09 07:36:46;;;;;;;6.93;6.05;;;21.50;29.80;;;;;;5027443;28;20365;-47
2021/03/09 07:39:13;;;;;;;9.13;6.30;;;21.50;29.80;;;;;;5022544;28;20205;-47
2021/03/09 07:41:39;;;;;;;8.38;5.93;;;21.50;29.80;;;;;;5021195;28;20064;-56
2021/03/09 07:44:05;;;;;;;8.38;6.13;;;21.50;29.90;;;;;;5026170;28;20037;-49
2021/03/09 07:46:32;;;;;;;7.95;6.22;;;21.50;30.00;;;;;;5021278;28;20427;-49
2021/03/09 07:48:58;;;;;;;8.25;6.00;;;21.50;30.00;;;;;;5023773;28;20033;-53
2021/03/09 07:51:24;;;;;;;6.63;5.53;;;21.50;30.10;;;;;;5027173;28;20126;-48
2021/03/09 07:54:10;;;;;;;7.00;5.68;;;21.50;30.10;;;;;;5020938;28;20065;-49
2021/03/09 07:56:36;;;;;;;6.15;5.22;;;21.60;30.10;;;;;;5027779;28;20174;-53
2021/03/09 07:59:06;;;;;;;5.32;4.80;;;21.60;30.40;;;;;;5022095;28;20675;-48
2021/03/09 08:01:45;;;;;;;5.57;4.93;;;21.60;30.00;;;;;;5033005;28;20445;-48
2021/03/09 08:04:12;;;;;;;6.15;4.60;;;21.60;30.00;;;;;;5026564;28;20069;-49
2021/03/09 08:06:44;;;;;;;5.68;4.40;;;21.70;30.00;;;;;;5018388;28;20116;-48
2021/03/09 08:09:33;;;;;;;5.00;4.50;;;21.70;30.00;;;;;;5021266;28;20599;-47
2021/03/09 08:11:59;;;;;;;5.40;4.10;;;21.70;30.00;;;;;;5025524;28;20045;-51
2021/03/09 08:14:26;;;;;;;4.68;3.95;;;21.70;30.00;;;;;;5027200;28;20040;-47
2021/03/09 08:16:52;;;;;;;5.03;3.85;;;21.80;30.00;;;;;;5016277;28;20034;-53
2021/03/09 08:19:24;;;;;;;4.15;3.75;;;21.80;30.00;;;;;;5019774;28;20034;-49
2021/03/09 08:21:57;;;;;;;4.38;3.50;;;21.80;30.00;;;;;;5023981;28;20456;-50
2021/03/09 08:24:46;;;;;;;4.68;3.83;;;21.80;30.00;;;;;;5015812;28;20135;-49
2021/03/09 08:27:42;;;;;;;4.53;3.80;;;21.90;30.00;;;;;;5011764;28;20330;-45
2021/03/09 08:30:24;;;;;;;3.65;3.05;;;21.90;30.00;;;;;;5008344;28;20346;-49
2021/03/09 08:32:50;;;;;;;4.50;3.30;;;21.90;30.00;;;;;;5018278;28;20088;-48
2021/03/09 08:35:16;;;;;;;3.67;3.00;;;21.90;30.00;;;;;;5017757;28;20029;-51
2021/03/09 08:37:48;;;;;;;4.05;3.15;;;21.90;30.00;;;;;;5018606;28;20021;-46
2021/03/09 08:40:15;;;;;;;4.78;2.97;;;21.90;30.00;;;;;;5025947;28;20430;-52
2021/03/09 08:43:01;;;;;;;4.03;3.08;;;21.90;30.00;;;;;;5024575;28;20029;-50
2021/03/09 08:45:37;;;;;;;3.60;2.88;;;22.00;30.20;;;;;;5013397;28;20046;-50
2021/03/09 08:48:04;;;;;;;4.00;2.97;;;21.90;30.10;;;;;;5028215;28;20040;-47
2021/03/09 08:50:36;;;;;;;5.40;3.40;;;22.00;30.20;;;;;;5021721;28;20037;-47
2021/03/09 08:53:03;;;;;;;3.17;2.75;;;22.00;30.30;;;;;;5022379;28;20041;-51
2021/03/09 08:55:29;;;;;;;3.88;3.05;;;22.00;30.30;;;;;;5030088;28;20047;-48
2021/03/09 08:57:55;;;;;;;4.25;3.30;;;22.00;30.30;;;;;;5024645;28;20026;-49
2021/03/09 09:00:21;;;;;;;4.10;3.00;;;22.10;30.30;;;;;;5026518;28;20045;-46
2021/03/09 09:02:47;;;;;;;4.65;2.90;;;22.10;30.30;;;;;;5017165;28;20135;-47
2021/03/09 09:05:15;;;;;;;3.15;2.50;;;22.20;30.20;;;;;;5021345;28;20113;-57
2021/03/09 09:07:43;;;;;;;3.03;2.60;;;22.30;30.20;;;;;;5018838;28;20037;-52
2021/03/09 09:10:23;;;;;;;3.55;2.83;;;22.30;30.10;;;;;;5022761;28;20181;-51
2021/03/09 09:12:53;;;;;;;4.22;2.47;;;22.40;30.10;;;;;;5033130;28;20438;-47
2021/03/09 09:15:29;;;;;;;1.80;1.70;;;22.50;30.00;;;;;;5025204;28;20104;-50
2021/03/09 09:18:01;;;;;;;2.08;1.88;;;22.50;30.00;;;;;;5031399;28;20033;-55
2021/03/09 09:20:36;;;;;;;4.07;2.10;;;22.60;30.00;;;;;;5033059;28;20029;-53
2021/03/09 09:23:09;;;;;;;2.53;2.15;;;22.70;30.10;;;;;;5038327;28;20083;-54
2021/03/09 09:25:40;;;;;;;2.53;1.83;;;22.80;30.10;;;;;;5037266;28;20124;-49
2021/03/09 09:28:06;;;;;;;2.97;2.22;;;22.90;30.20;;;;;;5034913;28;20070;-50
2021/03/09 09:30:42;;;;;;;2.50;2.25;;;22.90;30.10;;;;;;5034903;28;20037;-49
2021/03/09 09:33:10;;;;;;;3.20;1.95;;;23.00;30.20;;;;;;5036865;28;20141;-46
2021/03/09 09:35:36;;;;;;;2.38;1.80;;;23.00;30.10;;;;;;5047687;28;20029;-50
2021/03/09 09:38:07;;;;;;;2.60;2.05;;;23.10;30.10;;;;;;5035954;28;20040;-48
2021/03/09 09:40:36;;;;;;;2.25;1.83;;;23.20;30.10;;;;;;5036142;28;20042;-51
2021/03/09 09:43:08;;;;;;;3.00;2.00;;;23.20;30.10;;;;;;5031609;28;20425;-54
2021/03/09 09:45:43;;;;;;;2.30;2.00;;;23.30;30.10;;;;;;5027331;28;20349;-49
2021/03/09 09:48:13;;;;;;;2.30;1.90;;;23.30;30.00;;;;;;5047918;28;20437;-56
2021/03/09 09:50:54;;;;;;;2.72;1.95;;;23.40;30.00;;;;;;5025194;28;20437;-55
2021/03/09 09:53:34;;;;;;;2.22;1.73;;;23.50;30.00;;;;;;5031556;28;20037;-55
2021/03/09 09:56:01;;;;;;;1.85;1.63;;;23.60;30.00;;;;;;5024211;28;20340;-56
2021/03/09 09:58:47;;;;;;;2.50;1.50;;;23.60;29.90;;;;;;5028013;28;20033;-52
2021/03/09 10:01:14;;;;;;;3.33;1.58;;;23.70;29.70;;;;;;5017482;28;20061;-53
2021/03/09 10:03:57;;;;;;;1.63;1.20;;;23.70;29.70;;;;;;5028835;28;20128;-54
2021/03/09 10:06:27;;;;;;;1.42;1.10;;;23.80;29.60;;;;;;5026136;28;20061;-54
2021/03/09 10:08:54;;;;;;;0.85;0.80;;;23.90;29.50;;;;;;5021294;28;20045;-52
2021/03/09 10:11:21;;;;;;;1.23;0.75;;;23.90;29.50;;;;;;5027411;28;20377;-53
2021/03/09 10:13:47;;;;;;;1.42;0.88;;;23.90;29.40;;;;;;5023787;28;20458;-56
2021/03/09 10:16:12;;;;;;;0.93;0.80;;;24.00;29.30;;;;;;5016804;28;20036;-50
2021/03/09 10:18:39;;;;;;;1.15;0.75;;;24.00;29.30;;;;;;5018384;28;20026;-55
2021/03/09 10:21:09;;;;;;;0.98;0.73;;;24.00;29.20;;;;;;5017004;28;20169;-49
2021/03/09 10:23:50;;;;;;;0.70;0.50;;;24.00;29.10;;;;;;5020668;28;20476;-51
2021/03/09 10:26:24;;;;;;;0.77;0.60;;;24.10;29.10;;;;;;5031745;28;20033;-50
2021/03/09 10:29:18;;;;;;;0.55;0.40;;;24.10;29.00;;;;;;5024286;28;20038;-49
2021/03/09 10:31:50;;;;;;;0.93;0.50;;;24.10;29.00;;;;;;5024897;28;20060;-50
2021/03/09 10:34:18;;;;;;;0.82;0.50;;;24.10;29.00;;;;;;5026141;28;20285;-52
2021/03/09 10:36:59;;;;;;;3.63;0.60;;;24.00;28.90;;;;;;5031229;28;20033;-52
2021/03/09 10:39:41;;;;;;;1.15;0.50;;;24.10;29.00;;;;;;5031427;28;20033;-50
2021/03/09 10:42:37;;;;;;;0.50;0.40;;;24.10;29.10;;;;;;5016817;28;20029;-55
2021/03/09 10:45:21;;;;;;;0.60;0.43;;;24.10;29.10;;;;;;5015661;28;20034;-52
2021/03/09 10:47:54;;;;;;;1.08;0.63;;;24.00;29.00;;;;;;5019775;28;20040;-52
2021/03/09 10:50:30;;;;;;;0.90;0.60;;;24.00;29.10;;;;;;5024334;28;20052;-55
2021/03/09 10:52:56;;;;;;;1.65;0.85;;;24.00;29.00;;;;;;5030866;28;20029;-50
2021/03/09 10:55:23;;;;;;;1.60;0.93;;;24.00;29.00;;;;;;5028882;28;20025;-53
2021/03/09 10:57:50;;;;;;;2.40;1.00;;;24.00;29.00;;;;;;5016903;28;20021;-56
2021/03/09 11:00:18;;;;;;;2.10;1.25;;;24.00;29.00;;;;;;5020464;28;20100;-57
2021/03/09 11:02:45;;;;;;;1.30;1.13;;;24.00;29.00;;;;;;5028288;28;20494;-53
2021/03/09 11:05:12;;;;;;;2.08;1.38;;;23.90;28.90;;;;;;5027936;28;20363;-50
2021/03/09 11:07:39;;;;;;;1.98;1.50;;;23.90;28.90;;;;;;5025051;28;20137;-53
2021/03/09 11:10:07;;;;;;;1.92;1.40;;;23.90;29.00;;;;;;5027114;28;20044;-50
2021/03/09 11:12:32;;;;;;;5.93;1.73;;;23.90;29.00;;;;;;5025546;28;20049;-50
2021/03/09 11:14:59;;;;;;;3.80;1.75;;;23.90;29.00;;;;;;5027771;28;20121;-55
2021/03/09 11:17:27;;;;;;;2.65;1.73;;;23.90;29.00;;;;;;5028091;28;20045;-57
2021/03/09 11:19:53;;;;;;;2.78;2.08;;;23.80;29.00;;;;;;5033835;28;20376;-56
2021/03/09 11:22:19;;;;;;;2.97;2.05;;;23.80;29.00;;;;;;5017492;28;20025;-51
2021/03/09 11:24:44;;;;;;;3.00;2.40;;;23.80;29.00;;;;;;5024453;28;20033;-54
2021/03/09 11:27:10;;;;;;;4.65;2.20;;;23.80;29.00;;;;;;5026346;28;20033;-56
2021/03/09 11:29:37;;;;;;;3.40;2.33;;;23.70;28.90;;;;;;5031690;28;20032;-51
2021/03/09 11:32:05;;;;;;;2.92;2.50;;;23.70;29.40;;;;;;5024880;28;20045;-55
2021/03/09 11:34:31;;;;;;;3.35;2.53;;;23.80;29.00;;;;;;5031422;28;20434;-48
2021/03/09 11:36:57;;;;;;;3.40;2.78;;;23.80;29.00;;;;;;5035677;28;20119;-49
2021/03/09 11:39:23;;;;;;;3.28;2.50;;;23.70;29.00;;;;;;5029290;28;20038;-49
2021/03/09 11:41:50;;;;;;;3.28;2.63;;;23.70;29.00;;;;;;5023458;28;20031;-50
2021/03/09 11:44:17;;;;;;;3.65;2.38;;;23.70;29.00;;;;;;5023114;28;20056;-48
2021/03/09 11:46:43;;;;;;;4.55;2.72;;;23.70;29.00;;;;;;5021514;28;20439;-51
2021/03/09 11:49:09;;;;;;;2.40;1.85;;;23.60;29.00;;;;;;5023365;28;20029;-57
2021/03/09 11:51:36;;;;;;;3.30;2.20;;;23.60;29.50;;;;;;5028551;28;20098;-47
2021/03/09 11:54:01;;;;;;;3.97;2.38;;;23.60;29.20;;;;;;5029427;28;20119;-47
2021/03/09 11:56:27;;;;;;;2.13;1.80;;;23.60;29.20;;;;;;5026620;28;20190;-52
2021/03/09 11:58:55;;;;;;;2.53;1.80;;;23.70;29.30;;;;;;5022216;28;20029;-51
2021/03/09 12:01:21;;;;;;;2.42;1.98;;;23.60;29.20;;;;;;5022216;28;20365;-48
2021/03/09 12:03:47;;;;;;;2.85;2.15;;;23.70;29.30;;;;;;5021986;28;20045;-57
2021/03/09 12:06:13;;;;;;;2.90;2.13;;;23.70;29.20;;;;;;5020218;28;20065;-45
2021/03/09 12:08:39;;;;;;;4.15;1.73;;;23.70;29.20;;;;;;5018840;28;20099;-46
2021/03/09 12:11:05;;;;;;;4.18;2.80;;;23.60;29.20;;;;;;5022323;28;20129;-46
2021/03/09 12:13:31;;;;;;;3.40;2.88;;;23.60;29.20;;;;;;5019903;28;20025;-54
2021/03/09 12:15:57;;;;;;;5.45;2.85;;;23.70;29.30;;;;;;5020177;28;20029;-48
2021/03/09 12:18:23;;;;;;;3.83;2.90;;;23.70;29.40;;;;;;5017442;28;20029;-55
2021/03/09 12:20:48;;;;;;;4.18;3.13;;;23.70;29.40;;;;;;5020184;28;20025;-44
2021/03/09 12:23:14;;;;;;;3.33;2.88;;;23.70;29.50;;;;;;5019363;28;20026;-44
2021/03/09 12:25:40;;;;;;;4.40;3.60;;;23.80;29.60;;;;;;5022165;28;20041;-47
2021/03/09 12:28:06;;;;;;;5.15;3.85;;;23.70;29.40;;;;;;5020119;28;20033;-46
2021/03/09 12:30:32;;;;;;;6.82;4.20;;;23.80;29.60;;;;;;5022253;28;20049;-46
2021/03/09 12:32:58;;;;;;;5.82;3.67;;;23.80;29.60;;;;;;5022927;28;20044;-48
2021/03/09 12:35:24;;;;;;;4.65;3.50;;;23.80;29.60;;;;;;5019352;28;20108;-43
2021/03/09 12:37:50;;;;;;;7.40;3.40;;;23.80;29.60;;;;;;5023122;28;20033;-46
2021/03/09 12:40:16;;;;;;;5.03;3.53;;;23.80;29.60;;;;;;5018862;28;20026;-47
2021/03/09 12:42:42;;;;;;;5.63;3.58;;;23.80;29.60;;;;;;5023519;28;20040;-47
2021/03/09 12:45:09;;;;;;;7.05;4.22;;;23.80;29.60;;;;;;5019702;28;20064;-52
2021/03/09 12:47:35;;;;;;;8.02;4.13;;;23.80;29.60;;;;;;5019875;28;20493;-50
2021/03/09 12:50:01;;;;;;;5.25;4.07;;;23.80;29.60;;;;;;5021123;28;20129;-46
2021/03/09 12:52:27;;;;;;;5.63;4.28;;;23.80;29.70;;;;;;5024755;28;20056;-46
2021/03/09 12:54:53;;;;;;;4.35;3.80;;;23.90;29.70;;;;;;5019614;28;20053;-47
2021/03/09 12:57:19;;;;;;;4.53;3.60;;;23.80;29.70;;;;;;5022998;28;20080;-51
2021/03/09 12:59:45;;;;;;;4.65;3.20;;;23.90;29.80;;;;;;5021117;28;20030;-50